TimeCST,TemperatureF,Dew PointF,Humidity,Sea Level PressureIn,VisibilityMPH,Wind Direction,Wind SpeedMPH,Gust SpeedMPH,PrecipitationIn,Events,Conditions,WindDirDegrees,DateUTC
12:15 AM,8.6,5.0,85,30.04,10.0,WSW,15.0,-,N/A,,Clear,240,2013-01-04 06:15:00
12:35 AM,8.6,5.0,85,30.03,10.0,SW,12.7,-,N/A,,Clear,230,2013-01-04 06:35:00
12:55 AM,8.6,6.8,92,30.01,10.0,WSW,15.0,18.4,N/A,,Clear,240,2013-01-04 06:55:00
1:15 AM,8.6,6.8,92,30.00,10.0,WSW,16.1,-,N/A,,Scattered Clouds,240,2013-01-04 07:15:00
1:35 AM,8.6,8.6,100,29.99,10.0,WSW,15.0,-,N/A,,Clear,240,2013-01-04 07:35:00
1:55 AM,8.6,8.6,100,29.99,10.0,WSW,13.8,-,N/A,,Clear,240,2013-01-04 07:55:00
2:15 AM,10.4,8.6,92,29.99,10.0,SW,12.7,-,N/A,,Scattered Clouds,230,2013-01-04 08:15:00
2:55 AM,8.6,8.6,100,29.98,10.0,SW,11.5,-,N/A,,Clear,230,2013-01-04 08:55:00
3:15 AM,8.6,8.6,100,29.97,10.0,SW,12.7,-,N/A,,Clear,230,2013-01-04 09:15:00
5:52 AM,8.6,6.8,92,29.95,10.0,SW,9.2,-,N/A,,Clear,230,2013-01-04 11:52:00
7:50 AM,8.6,8.6,100,29.96,10.0,WSW,11.5,-,N/A,,Clear,240,2013-01-04 13:50:00
8:55 AM,12.2,10.4,92,29.97,10.0,WSW,10.4,-,N/A,,Clear,250,2013-01-04 14:55:00
9:45 AM,15.8,12.2,86,30.00,10.0,West,9.2,-,N/A,,Clear,270,2013-01-04 15:45:00
10:45 AM,19.4,15.8,86,30.00,10.0,West,9.2,-,N/A,,Clear,270,2013-01-04 16:45:00
11:45 AM,23.0,15.8,74,30.00,10.0,West,13.8,18.4,N/A,,Clear,260,2013-01-04 17:45:00
12:45 PM,24.8,17.6,74,29.99,10.0,WSW,11.5,-,N/A,,Clear,250,2013-01-04 18:45:00
1:45 PM,26.6,17.6,69,29.98,10.0,WSW,12.7,-,N/A,,Clear,240,2013-01-04 19:45:00
2:50 PM,26.6,17.6,69,30.01,10.0,WSW,13.8,-,N/A,,Clear,250,2013-01-04 20:50:00
3:45 PM,26.6,17.6,69,30.02,10.0,WSW,11.5,-,N/A,,Clear,250,2013-01-04 21:45:00
4:45 PM,24.8,15.8,69,30.04,10.0,WSW,9.2,-,N/A,,Clear,250,2013-01-04 22:45:00
5:45 PM,23.0,15.8,74,30.06,10.0,West,8.1,-,N/A,,Clear,270,2013-01-04 23:45:00
6:45 PM,21.2,15.8,80,30.07,10.0,West,5.8,-,N/A,,Clear,260,2013-01-05 00:45:00
7:50 PM,19.4,14.0,80,30.10,10.0,WSW,6.9,-,N/A,,Clear,240,2013-01-05 01:50:00
8:45 PM,15.8,12.2,86,30.10,10.0,WSW,3.5,-,N/A,,Clear,240,2013-01-05 02:45:00
9:15 PM,17.6,14.0,86,30.10,10.0,SW,3.5,-,N/A,,Clear,220,2013-01-05 03:15:00
9:35 PM,17.6,14.0,86,30.10,10.0,WSW,3.5,-,N/A,,Clear,240,2013-01-05 03:35:00
9:45 PM,17.6,15.8,93,30.10,10.0,WSW,4.6,-,N/A,,Clear,240,2013-01-05 03:45:00
9:55 PM,19.4,15.8,86,30.11,10.0,WSW,5.8,-,N/A,,Clear,240,2013-01-05 03:55:00
10:15 PM,15.8,14.0,93,30.11,10.0,Calm,Calm,-,N/A,,Clear,0,2013-01-05 04:15:00
10:35 PM,17.6,14.0,86,30.11,10.0,Calm,Calm,-,N/A,,Clear,0,2013-01-05 04:35:00
10:55 PM,14.0,14.0,100,30.11,10.0,Calm,Calm,-,N/A,,Clear,0,2013-01-05 04:55:00
11:15 PM,15.8,14.0,93,30.12,10.0,Calm,Calm,-,N/A,,Clear,0,2013-01-05 05:15:00
11:35 PM,14.0,14.0,100,30.12,10.0,Calm,Calm,-,N/A,,Clear,0,2013-01-05 05:35:00
11:55 PM,12.2,12.2,100,30.12,10.0,Calm,Calm,-,N/A,,Clear,0,2013-01-05 05:55:00